createdAt,value
2022-09-23T00:00:44.083Z,12.59
2022-09-23T00:03:15.462Z,12.59
2022-09-23T00:05:46.811Z,12.63
2022-09-23T00:08:16.908Z,12.79
2022-09-23T00:10:47.156Z,12.75
2022-09-23T00:13:17.674Z,12.69
2022-09-23T00:15:47.985Z,12.72
2022-09-23T00:18:19.776Z,12.75
2022-09-23T00:20:50.610Z,12.56
2022-09-23T00:23:20.939Z,12.59
2022-09-23T00:26:02.348Z,12.59
2022-09-23T00:28:34.297Z,12.54
2022-09-23T00:31:19.536Z,12.59
2022-09-23T00:33:57.923Z,12.54
2022-09-23T00:36:29.608Z,12.59
2022-09-23T00:39:00.058Z,12.56
2022-09-23T00:41:30.443Z,12.61
2022-09-23T00:44:02.103Z,12.65
2022-09-23T00:46:40.102Z,12.55
2022-09-23T00:49:15.144Z,12.48
2022-09-23T00:52:00.363Z,12.42
2022-09-23T00:54:32.474Z,12.35
2022-09-23T00:57:04.861Z,12.38
2022-09-23T00:59:35.286Z,12.30
2022-09-23T01:02:06.619Z,12.32
2022-09-23T01:04:38.032Z,12.40
2022-09-23T01:07:08.115Z,12.35
2022-09-23T01:09:38.423Z,12.34
2022-09-23T01:12:26.210Z,12.37
2022-09-23T01:15:17.911Z,12.27
2022-09-23T01:17:48.616Z,12.27
2022-09-23T01:20:43.178Z,12.24
2022-09-23T01:23:50.719Z,12.18
2022-09-23T01:26:39.271Z,12.14
2022-09-23T01:29:26.837Z,12.10
2022-09-23T01:32:28.184Z,12.11
2022-09-23T01:35:04.122Z,12.08
2022-09-23T01:38:01.739Z,12.03
2022-09-23T01:41:00.697Z,12.05
2022-09-23T01:43:35.109Z,12.04
2022-09-23T01:46:16.799Z,12.03
2022-09-23T01:49:12.087Z,12.01
2022-09-23T01:51:48.444Z,12.00
2022-09-23T01:54:30.242Z,11.98
2022-09-23T01:57:04.071Z,11.90
2022-09-23T01:59:40.785Z,11.83
2022-09-23T02:02:14.272Z,11.84
2022-09-23T02:05:10.880Z,11.83
2022-09-23T02:07:51.531Z,11.80
2022-09-23T02:10:37.619Z,11.83
2022-09-23T02:13:17.764Z,11.73
2022-09-23T02:15:54.928Z,11.73
2022-09-23T02:18:36.260Z,11.69
2022-09-23T02:21:09.905Z,11.66
2022-09-23T02:23:55.517Z,11.62
2022-09-23T02:26:34.853Z,11.63
2022-09-23T02:29:28.028Z,11.47
2022-09-23T02:32:33.751Z,11.28
2022-09-23T02:35:42.341Z,11.15
2022-09-23T02:38:27.118Z,11.14
2022-09-23T02:41:08.973Z,11.07
2022-09-23T02:43:49.819Z,11.04
2022-09-23T02:46:21.461Z,11.07
2022-09-23T02:48:58.824Z,11.07
2022-09-23T02:51:35.624Z,11.01
2022-09-23T02:54:08.393Z,10.90
2022-09-23T02:56:38.618Z,10.87
2022-09-23T02:59:10.930Z,10.74
2022-09-23T03:01:54.409Z,10.77
2022-09-23T03:04:32.765Z,10.70
2022-09-23T03:07:18.275Z,10.63
2022-09-23T03:10:06.379Z,10.44
2022-09-23T03:12:59.749Z,10.30
2022-09-23T03:16:18.126Z,10.28
2022-09-23T03:18:57.372Z,10.17
2022-09-23T03:21:38.325Z,10.06
2022-09-23T03:24:15.482Z,10.02
2022-09-23T03:26:49.011Z,9.95
2022-09-23T03:29:21.839Z,9.84
2022-09-23T03:31:52.210Z,9.77
2022-09-23T03:34:27.612Z,9.70
2022-09-23T03:37:03.291Z,9.58
2022-09-23T03:39:36.960Z,9.61
2022-09-23T03:42:23.756Z,9.57
2022-09-23T03:44:55.965Z,9.62
2022-09-23T03:47:30.228Z,9.55
2022-09-23T03:50:00.713Z,9.37
2022-09-23T03:52:30.685Z,9.23
2022-09-23T03:55:00.633Z,9.19
2022-09-23T03:57:30.436Z,9.16
2022-09-23T04:00:00.240Z,8.96
2022-09-23T04:02:30.483Z,8.99
2022-09-23T04:05:00.278Z,8.96
2022-09-23T04:07:30.650Z,8.95
2022-09-23T04:10:00.616Z,8.85
2022-09-23T04:12:30.435Z,8.85
2022-09-23T04:15:00.229Z,8.76
2022-09-23T04:17:30.035Z,8.72
2022-09-23T04:19:59.851Z,8.52
2022-09-23T04:22:29.966Z,8.56
2022-09-23T04:24:59.771Z,8.56
2022-09-23T04:27:30.024Z,8.52
2022-09-23T04:30:02.634Z,8.42
2022-09-23T04:32:32.938Z,8.31
2022-09-23T04:35:03.496Z,8.37
2022-09-23T04:37:33.829Z,8.30
2022-09-23T04:40:04.384Z,8.18
2022-09-23T04:42:34.250Z,8.16
2022-09-23T04:45:06.034Z,8.13
2022-09-23T04:47:36.936Z,8.13
2022-09-23T04:50:07.328Z,8.16
2022-09-23T04:52:37.068Z,8.14
2022-09-23T04:55:11.072Z,8.08
2022-09-23T04:57:41.639Z,7.97
2022-09-23T05:00:16.593Z,7.94
2022-09-23T05:02:49.850Z,7.91
2022-09-23T05:05:22.201Z,7.85
2022-09-23T05:07:52.877Z,7.87
2022-09-23T05:10:23.014Z,7.85
2022-09-23T05:12:57.073Z,7.73
2022-09-23T05:15:27.870Z,7.75
2022-09-23T05:18:00.906Z,7.75
2022-09-23T05:20:30.888Z,7.75
2022-09-23T05:23:01.483Z,7.69
2022-09-23T05:25:36.286Z,7.65
2022-09-23T05:28:08.806Z,7.65
2022-09-23T05:30:38.730Z,7.62
2022-09-23T05:33:08.478Z,7.48
2022-09-23T05:35:38.185Z,7.51
2022-09-23T05:38:08.558Z,7.56
2022-09-23T05:40:38.810Z,7.51
2022-09-23T05:43:09.227Z,7.42
2022-09-23T05:45:40.047Z,7.45
2022-09-23T05:48:10.231Z,7.46
2022-09-23T05:50:40.402Z,7.44
2022-09-23T05:53:10.691Z,7.45
2022-09-23T05:55:41.262Z,7.35
2022-09-23T05:58:11.020Z,7.32
2022-09-23T06:00:45.318Z,7.26
2022-09-23T06:03:17.667Z,7.25
2022-09-23T06:05:49.573Z,7.21
2022-09-23T06:08:19.845Z,7.17
2022-09-23T06:10:53.516Z,7.19
2022-09-23T06:13:24.648Z,7.12
2022-09-23T06:15:59.955Z,7.15
2022-09-23T06:18:30.176Z,7.08
2022-09-23T06:21:03.410Z,7.05
2022-09-23T06:23:35.613Z,7.01
2022-09-23T06:26:09.970Z,6.94
2022-09-23T06:28:42.320Z,6.91
2022-09-23T06:31:17.463Z,6.81
2022-09-23T06:33:48.053Z,6.88
2022-09-23T06:36:36.277Z,6.86
2022-09-23T06:39:09.035Z,6.86
2022-09-23T06:41:39.534Z,6.86
2022-09-23T06:44:16.078Z,6.86
2022-09-23T06:46:46.751Z,6.80
2022-09-23T06:49:17.005Z,6.74
2022-09-23T06:51:46.794Z,6.70
2022-09-23T06:54:16.567Z,6.66
2022-09-23T06:56:48.624Z,6.69
2022-09-23T06:59:19.798Z,6.70
2022-09-23T07:01:51.781Z,6.66
2022-09-23T07:04:24.105Z,6.57
2022-09-23T07:06:57.518Z,6.53
2022-09-23T07:09:28.945Z,6.52
2022-09-23T07:11:59.687Z,6.54
2022-09-23T07:14:30.366Z,6.47
2022-09-23T07:17:01.271Z,6.52
2022-09-23T07:19:32.005Z,6.47
2022-09-23T07:22:02.866Z,6.43
2022-09-23T07:24:32.824Z,6.46
2022-09-23T07:27:03.760Z,6.40
2022-09-23T07:29:45.503Z,6.37
2022-09-23T07:32:18.490Z,6.37
2022-09-23T07:34:49.287Z,6.37
2022-09-23T07:37:19.847Z,6.36
2022-09-23T07:39:51.220Z,6.33
2022-09-23T07:42:21.565Z,6.32
2022-09-23T07:44:51.339Z,6.25
2022-09-23T07:47:21.700Z,6.28
2022-09-23T07:49:51.453Z,6.26
2022-09-23T07:52:21.827Z,6.21
2022-09-23T07:54:52.276Z,6.18
2022-09-23T07:57:22.929Z,6.18
2022-09-23T07:59:52.874Z,6.19
2022-09-23T08:02:22.833Z,6.18
2022-09-23T08:04:53.259Z,6.05
2022-09-23T08:07:23.670Z,6.02
2022-09-23T08:09:53.700Z,5.99
2022-09-23T08:12:23.538Z,6.01
2022-09-23T08:14:53.313Z,6.06
2022-09-23T08:17:23.558Z,6.04
2022-09-23T08:19:53.367Z,6.05
2022-09-23T08:22:23.633Z,5.99
2022-09-23T08:24:56.151Z,5.94
2022-09-23T08:27:28.837Z,5.94
2022-09-23T08:29:58.990Z,5.94
2022-09-23T08:32:29.100Z,5.90
2022-09-23T08:34:58.918Z,5.85
2022-09-23T08:37:29.002Z,5.84
2022-09-23T08:39:58.761Z,5.79
2022-09-23T08:42:34.977Z,5.81
2022-09-23T08:45:09.407Z,5.75
2022-09-23T08:47:55.368Z,5.74
2022-09-23T08:50:35.541Z,5.77
2022-09-23T08:53:13.161Z,5.77
2022-09-23T08:55:50.474Z,5.75
2022-09-23T08:58:58.485Z,5.73
2022-09-23T09:01:58.788Z,5.64
2022-09-23T09:04:38.945Z,5.66
2022-09-23T09:07:32.211Z,5.63
2022-09-23T09:10:13.385Z,5.57
2022-09-23T09:12:48.120Z,5.63
2022-09-23T09:15:25.102Z,5.63
2022-09-23T09:18:07.559Z,5.61
2022-09-23T09:21:11.114Z,5.54
2022-09-23T09:23:59.292Z,5.54
2022-09-23T09:26:33.660Z,5.54
2022-09-23T09:29:23.872Z,5.56
2022-09-23T09:31:58.775Z,5.58
2022-09-23T09:34:43.763Z,5.58
2022-09-23T09:37:35.813Z,5.63
2022-09-23T09:40:06.691Z,5.66
2022-09-23T09:42:41.734Z,5.63
2022-09-23T09:45:39.785Z,5.66
2022-09-23T09:48:19.603Z,5.66
2022-09-23T09:50:54.467Z,5.74
2022-09-23T09:53:36.934Z,5.81
2022-09-23T09:56:17.505Z,5.97
2022-09-23T09:58:57.222Z,6.14
2022-09-23T10:01:35.659Z,6.36
2022-09-23T10:04:30.921Z,6.67
2022-09-23T10:07:13.496Z,7.14
2022-09-23T10:09:51.618Z,7.55
2022-09-23T10:12:48.211Z,7.97
2022-09-23T10:15:29.296Z,8.41
2022-09-23T10:18:02.317Z,8.77
2022-09-23T10:20:39.171Z,9.12
2022-09-23T10:23:15.396Z,9.44
2022-09-23T10:25:56.091Z,9.85
2022-09-23T10:28:46.142Z,10.23
2022-09-23T10:31:28.199Z,10.47
2022-09-23T10:34:20.309Z,10.67
2022-09-23T10:37:18.226Z,11.00
2022-09-23T10:40:08.986Z,11.31
2022-09-23T10:43:15.071Z,11.76
2022-09-23T10:46:09.527Z,12.13
2022-09-23T10:49:24.475Z,12.38
2022-09-23T10:52:18.826Z,12.55
2022-09-23T10:55:22.744Z,12.83
2022-09-23T10:58:02.043Z,13.02
2022-09-23T11:00:48.839Z,13.40
2022-09-23T11:03:45.761Z,13.62
2022-09-23T11:06:28.933Z,13.72
2022-09-23T11:18:44.499Z,15.15
2022-09-23T11:21:23.664Z,15.35
2022-09-23T11:24:16.981Z,15.78
2022-09-23T11:27:06.132Z,16.30
2022-09-23T11:30:12.716Z,16.75
2022-09-23T11:32:54.774Z,16.92
2022-09-23T11:35:49.287Z,16.93
2022-09-23T11:38:39.814Z,16.44
2022-09-23T11:41:31.846Z,15.97
2022-09-23T11:44:21.261Z,16.62
2022-09-23T11:46:54.160Z,16.93
2022-09-23T11:49:40.411Z,16.73
2022-09-23T11:52:10.408Z,16.06
2022-09-23T11:54:48.702Z,15.60
2022-09-23T11:57:49.313Z,16.32
2022-09-23T12:00:20.331Z,16.35
2022-09-23T12:03:11.446Z,16.89
2022-09-23T12:05:46.686Z,17.41
2022-09-23T12:08:34.513Z,17.68
2022-09-23T12:11:19.528Z,16.18
2022-09-23T12:14:10.095Z,16.04
2022-09-23T12:16:56.939Z,16.44
2022-09-23T12:19:37.301Z,17.53
2022-09-23T12:22:36.435Z,18.55
2022-09-23T12:25:31.469Z,18.55
2022-09-23T12:28:14.323Z,17.41
2022-09-23T12:30:46.761Z,17.34
2022-09-23T12:33:23.675Z,17.09
2022-09-23T12:35:56.570Z,17.92
2022-09-23T12:38:33.828Z,17.73
2022-09-23T12:41:19.727Z,17.43
2022-09-23T12:44:03.859Z,16.96
2022-09-23T12:46:34.060Z,17.13
2022-09-23T12:49:07.687Z,17.00
2022-09-23T12:51:38.532Z,17.16
2022-09-23T12:54:24.717Z,17.26
2022-09-23T12:56:58.335Z,17.84
2022-09-23T12:59:31.610Z,17.46
2022-09-23T13:02:31.031Z,17.60
2022-09-23T13:05:45.784Z,17.61
2022-09-23T13:08:20.945Z,18.12
2022-09-23T13:10:56.780Z,17.92
2022-09-23T13:13:34.103Z,18.38
2022-09-23T13:16:16.349Z,17.85
2022-09-23T13:19:08.003Z,18.57
2022-09-23T13:21:47.512Z,18.90
2022-09-23T13:24:27.220Z,18.40
2022-09-23T13:27:16.629Z,18.57
2022-09-23T13:29:47.117Z,18.57
2022-09-23T13:32:19.934Z,18.22
2022-09-23T13:35:01.629Z,18.38
2022-09-23T13:37:44.235Z,18.57
2022-09-23T13:40:31.258Z,18.94
2022-09-23T13:43:08.350Z,19.61
2022-09-23T13:45:42.653Z,19.27
2022-09-23T13:48:16.958Z,19.44
2022-09-23T13:50:51.724Z,19.52
2022-09-23T13:53:33.983Z,19.00
2022-09-23T13:56:17.386Z,19.75
2022-09-23T13:58:47.564Z,18.56
2022-09-23T14:01:31.158Z,19.82
2022-09-23T14:04:02.696Z,20.10
2022-09-23T14:06:33.460Z,19.25
2022-09-23T14:09:04.204Z,19.72
2022-09-23T14:11:36.829Z,20.37
2022-09-23T14:14:08.907Z,19.89
2022-09-23T14:16:41.011Z,21.20
2022-09-23T14:19:18.937Z,22.66
2022-09-23T14:21:54.643Z,21.30
2022-09-23T14:24:38.233Z,20.74
2022-09-23T14:27:08.496Z,21.58
2022-09-23T14:29:41.557Z,20.76
2022-09-23T14:32:25.739Z,20.81
2022-09-23T14:35:04.868Z,20.82
2022-09-23T14:38:01.612Z,20.84
2022-09-23T14:40:35.993Z,20.92
2022-09-23T14:43:06.805Z,21.00
2022-09-23T14:45:41.764Z,20.89
2022-09-23T14:48:19.828Z,20.54
2022-09-23T14:51:22.281Z,19.87
2022-09-23T14:53:52.506Z,20.18
2022-09-23T14:56:25.399Z,20.26
2022-09-23T14:59:01.852Z,20.95
2022-09-23T15:01:38.533Z,20.54
2022-09-23T15:04:23.733Z,20.18
2022-09-23T15:07:08.122Z,20.47
2022-09-23T15:09:41.803Z,19.31
2022-09-23T15:12:21.790Z,20.17
2022-09-23T15:14:56.180Z,22.00
2022-09-23T15:17:32.406Z,22.94
2022-09-23T15:20:20.596Z,21.23
2022-09-23T15:22:56.868Z,20.82
2022-09-23T15:25:33.284Z,21.19
2022-09-23T15:28:20.249Z,22.33
2022-09-23T15:30:51.582Z,22.62
2022-09-23T15:33:27.765Z,21.47
2022-09-23T15:35:58.263Z,21.37
2022-09-23T15:38:28.469Z,22.53
2022-09-23T15:40:58.774Z,22.48
2022-09-23T15:43:28.762Z,22.57
2022-09-23T15:46:08.732Z,21.37
2022-09-23T15:48:45.388Z,21.50
2022-09-23T15:51:17.188Z,21.61
2022-09-23T15:53:49.010Z,21.71
2022-09-23T15:56:19.242Z,23.28
2022-09-23T15:58:49.773Z,22.53
2022-09-23T16:01:37.860Z,22.83
2022-09-23T16:04:08.089Z,23.48
2022-09-23T16:06:38.760Z,22.74
2022-09-23T16:09:09.402Z,22.31
2022-09-23T16:11:39.557Z,21.36
2022-09-23T16:14:16.677Z,19.97
2022-09-23T16:16:49.018Z,21.74
2022-09-23T16:19:19.229Z,22.11
2022-09-23T16:21:49.236Z,23.25
2022-09-23T16:24:25.944Z,21.25
2022-09-23T16:27:01.172Z,22.16
2022-09-23T16:29:31.418Z,22.72
2022-09-23T16:32:02.311Z,23.81
2022-09-23T16:34:32.399Z,24.89
2022-09-23T16:37:02.785Z,25.58
2022-09-23T16:39:33.037Z,22.80
2022-09-23T16:42:03.413Z,20.75
2022-09-23T16:44:34.368Z,20.10
2022-09-23T16:47:05.590Z,19.94
2022-09-23T16:49:35.955Z,22.14
2022-09-23T16:52:06.704Z,21.61
2022-09-23T16:54:38.582Z,19.80
2022-09-23T16:57:10.632Z,19.77
2022-09-23T16:59:59.117Z,19.87
2022-09-23T17:02:48.345Z,21.93
2022-09-23T17:05:21.003Z,21.15
2022-09-23T17:07:52.602Z,20.37
2022-09-23T17:10:23.140Z,20.38
2022-09-23T17:12:55.628Z,19.03
2022-09-23T17:15:25.189Z,18.04
2022-09-23T17:17:55.266Z,19.61
2022-09-23T17:20:25.150Z,21.44
2022-09-23T17:22:56.328Z,23.18
2022-09-23T17:25:27.134Z,24.89
2022-09-23T17:27:57.196Z,25.54
2022-09-23T17:30:28.235Z,25.67
2022-09-23T17:32:58.721Z,26.45
2022-09-23T17:35:28.554Z,24.40
2022-09-23T17:37:58.379Z,23.59
2022-09-23T17:40:28.273Z,22.35
2022-09-23T17:42:58.166Z,23.71
2022-09-23T17:45:28.427Z,23.32
2022-09-23T17:47:58.299Z,24.06
2022-09-23T17:50:29.019Z,23.68
2022-09-23T17:53:03.381Z,24.68
2022-09-23T17:55:33.359Z,25.16
2022-09-23T17:58:03.688Z,24.59
2022-09-23T18:00:33.505Z,24.47
2022-09-23T18:03:03.835Z,24.06
2022-09-23T18:05:33.647Z,23.82
2022-09-23T18:08:06.008Z,22.64
2022-09-23T18:10:36.235Z,22.42
2022-09-23T18:13:07.132Z,22.92
2022-09-23T18:15:38.472Z,20.78
2022-09-23T18:18:09.200Z,20.05
2022-09-23T18:20:39.227Z,19.89
2022-09-23T18:23:09.100Z,21.95
2022-09-23T18:25:39.966Z,22.18
2022-09-23T18:28:10.636Z,22.11
2022-09-23T18:30:41.328Z,21.57
2022-09-23T18:33:11.267Z,21.94
2022-09-23T18:35:41.048Z,21.42
2022-09-23T18:38:11.182Z,21.50
2022-09-23T18:40:41.477Z,21.83
2022-09-23T18:43:11.675Z,22.24
2022-09-23T18:45:41.484Z,21.29
2022-09-23T18:48:29.725Z,20.85
2022-09-23T18:50:59.962Z,20.95
2022-09-23T18:53:30.024Z,20.44
2022-09-23T18:55:59.814Z,20.35
2022-09-23T18:58:29.645Z,20.40
2022-09-23T19:01:05.155Z,20.45
2022-09-23T19:03:39.748Z,20.63
2022-09-23T19:06:13.116Z,20.63
2022-09-23T19:08:44.674Z,20.17
2022-09-23T19:11:15.011Z,20.06
2022-09-23T19:13:47.217Z,20.27
2022-09-23T19:16:18.424Z,20.20
2022-09-23T19:18:48.556Z,19.70
2022-09-23T19:21:21.627Z,19.48
2022-09-23T19:23:54.957Z,19.45
2022-09-23T19:26:28.665Z,19.21
2022-09-23T19:29:00.365Z,18.81
2022-09-23T19:31:36.521Z,18.59
2022-09-23T19:34:24.832Z,18.42
2022-09-23T19:37:00.869Z,18.42
2022-09-23T19:39:32.847Z,18.55
2022-09-23T19:42:02.813Z,18.32
2022-09-23T19:44:33.329Z,18.32
2022-09-23T19:47:04.898Z,18.18
2022-09-23T19:49:35.050Z,18.32
2022-09-23T19:52:04.946Z,18.08
2022-09-23T19:54:35.267Z,18.22
2022-09-23T19:57:05.701Z,17.99
2022-09-23T19:59:35.533Z,17.87
2022-09-23T20:02:05.399Z,17.92
2022-09-23T20:04:36.611Z,17.82
2022-09-23T20:07:07.719Z,17.68
2022-09-23T20:09:37.739Z,17.58
2022-09-23T20:12:07.538Z,17.61
2022-09-23T20:14:37.323Z,17.44
2022-09-23T20:17:08.784Z,17.43
2022-09-23T20:19:39.322Z,17.24
2022-09-23T20:22:33.242Z,17.10
2022-09-23T20:25:04.946Z,17.16
2022-09-23T20:27:36.036Z,17.13
2022-09-23T20:30:09.013Z,16.98
2022-09-23T20:32:43.942Z,16.93
2022-09-23T20:35:14.875Z,16.89
2022-09-23T20:37:44.706Z,16.79
2022-09-23T20:40:15.207Z,16.67
2022-09-23T20:42:45.469Z,16.61
2022-09-23T20:45:16.737Z,16.59
2022-09-23T20:47:46.936Z,16.57
2022-09-23T20:50:17.437Z,16.42
2022-09-23T20:52:47.644Z,16.22
2022-09-23T20:55:18.429Z,16.13
2022-09-23T20:57:49.919Z,16.10
2022-09-23T21:00:20.482Z,15.96
2022-09-23T21:02:50.773Z,15.74
2022-09-23T21:05:20.599Z,15.58
2022-09-23T21:07:50.470Z,15.43
2022-09-23T21:10:20.362Z,15.39
2022-09-23T21:12:51.597Z,15.28
2022-09-23T21:15:22.554Z,15.08
2022-09-23T21:17:52.403Z,14.95
2022-09-23T21:20:22.198Z,14.83
2022-09-23T21:22:52.039Z,14.74
2022-09-23T21:25:29.697Z,14.56
2022-09-23T21:28:03.022Z,14.29
2022-09-23T21:30:34.153Z,14.15
2022-09-23T21:33:04.398Z,14.02
2022-09-23T21:35:34.224Z,13.91
2022-09-23T21:38:04.350Z,13.77
2022-09-23T21:40:52.622Z,13.64
2022-09-23T21:43:24.781Z,13.41
2022-09-23T21:46:00.531Z,13.30
2022-09-23T21:48:38.701Z,13.27
2022-09-23T21:51:15.250Z,13.03
2022-09-23T21:53:45.969Z,13.00
2022-09-23T21:56:20.880Z,12.97
2022-09-23T21:58:53.356Z,12.86
2022-09-23T22:01:30.010Z,12.69
2022-09-23T22:04:11.860Z,12.55
2022-09-23T22:06:43.222Z,12.44
2022-09-23T22:09:16.736Z,12.40
2022-09-23T22:12:05.704Z,12.34
2022-09-23T22:14:36.275Z,12.30
2022-09-23T22:17:08.172Z,12.23
2022-09-23T22:19:45.605Z,12.11
2022-09-23T22:22:19.047Z,12.01
2022-09-23T22:24:50.220Z,11.87
2022-09-23T22:27:23.103Z,11.76
2022-09-23T22:30:11.091Z,11.72
2022-09-23T22:32:54.929Z,11.61
2022-09-23T22:35:25.655Z,11.51
2022-09-23T22:37:57.377Z,11.47
2022-09-23T22:40:28.536Z,11.40
2022-09-23T22:42:58.821Z,11.26
2022-09-23T22:45:28.929Z,11.14
2022-09-23T22:47:59.240Z,11.12
2022-09-23T22:50:29.481Z,10.98
2022-09-23T22:52:59.694Z,10.95
2022-09-23T22:55:29.644Z,10.90
2022-09-23T22:58:15.284Z,10.88
2022-09-23T23:00:50.927Z,10.83
2022-09-23T23:03:21.659Z,10.77
2022-09-23T23:05:52.879Z,10.73
2022-09-23T23:08:23.076Z,10.64
2022-09-23T23:10:52.927Z,10.59
2022-09-23T23:13:23.358Z,10.56
2022-09-23T23:15:53.679Z,10.50
2022-09-23T23:18:24.680Z,10.43
2022-09-23T23:20:58.149Z,10.43
2022-09-23T23:23:28.159Z,10.42
2022-09-23T23:25:57.918Z,10.30
2022-09-23T23:28:27.772Z,10.23
2022-09-23T23:31:03.868Z,10.20
2022-09-23T23:33:34.474Z,10.15
2022-09-23T23:36:05.203Z,10.12
2022-09-23T23:38:39.165Z,10.01
2022-09-23T23:41:12.397Z,9.99
2022-09-23T23:43:47.603Z,9.98
2022-09-23T23:46:18.010Z,9.94
2022-09-23T23:48:49.311Z,9.91
2022-09-23T23:51:19.364Z,9.85
2022-09-23T23:53:49.823Z,9.82
2022-09-23T23:56:22.446Z,9.78
2022-09-23T23:59:06.356Z,9.74
